Time;durP1;ratioP1;P1;durP2;ratioP2;P2;SDS_P1;SDS_P2;PMS_P1;PMS_P2;Temp;Humidity;BMP_temperature;BMP_pressure;BME280_temperature;BME280_humidity;BME280_pressure;Samples;Min_cycle;Max_cycle;Signal;HPM_P1;HPM_P2
2023/12/16 00:01:45;;;;;;;25.88;7.35;;;;;;;5.87;100.00;102776.50;5002452;28;20846;-81
2023/12/16 00:04:14;;;;;;;23.40;7.38;;;;;;;5.74;100.00;102777.25;4986910;28;20437;-81
2023/12/16 00:06:47;;;;;;;25.75;7.47;;;;;;;5.75;100.00;102768.94;4998452;28;20462;-81
2023/12/16 00:09:20;;;;;;;22.63;7.35;;;;;;;5.89;100.00;102774.44;4995708;28;20449;-81
2023/12/16 00:11:54;;;;;;;27.75;7.45;;;;;;;5.70;100.00;102774.09;5000014;28;20424;-81
2023/12/16 00:14:22;;;;;;;32.45;7.65;;;;;;;5.73;100.00;102770.16;4983173;28;20430;-81
2023/12/16 00:16:52;;;;;;;24.63;7.50;;;;;;;5.93;100.00;102776.56;4987729;28;20436;-81
2023/12/16 00:19:25;;;;;;;19.13;6.88;;;;;;;5.77;100.00;102780.41;4986242;28;20467;-81
2023/12/16 00:21:58;;;;;;;25.63;7.20;;;;;;;5.82;100.00;102781.69;4999692;28;20428;-81
2023/12/16 00:24:32;;;;;;;24.73;6.90;;;;;;;5.82;100.00;102787.09;4981713;28;20433;-81
2023/12/16 00:27:05;;;;;;;25.17;6.82;;;;;;;5.92;100.00;102779.47;4999668;28;20431;-81
2023/12/16 00:29:33;;;;;;;24.70;6.80;;;;;;;5.85;100.00;102773.16;4987804;28;20428;-81
2023/12/16 00:32:08;;;;;;;24.92;6.90;;;;;;;5.87;100.00;102782.75;4999903;28;20414;-81
2023/12/16 00:34:41;;;;;;;25.20;7.10;;;;;;;5.75;100.00;102787.03;4987635;28;20436;-81
2023/12/16 00:37:15;;;;;;;26.10;7.32;;;;;;;5.87;100.00;102788.16;5001032;28;20430;-81
2023/12/16 00:39:43;;;;;;;25.67;7.10;;;;;;;5.82;100.00;102774.41;5002012;28;20444;-81
2023/12/16 00:42:16;;;;;;;19.30;7.10;;;;;;;5.77;100.00;102776.84;4999137;28;20935;-81
2023/12/16 00:44:44;;;;;;;23.38;7.55;;;;;;;5.81;100.00;102778.13;4979350;28;20422;-81
2023/12/16 00:47:14;;;;;;;21.42;7.40;;;;;;;5.78;100.00;102782.06;4999911;28;20885;-81
2023/12/16 00:49:47;;;;;;;23.67;7.40;;;;;;;5.87;100.00;102781.91;5001685;28;20429;-81
2023/12/16 00:52:20;;;;;;;28.37;7.33;;;;;;;5.77;100.00;102780.41;5000628;28;20504;-81
2023/12/16 00:54:48;;;;;;;23.55;7.53;;;;;;;5.74;100.00;102783.47;5000142;28;20510;-81
2023/12/16 00:57:22;;;;;;;28.70;8.18;;;;;;;5.78;100.00;102775.81;4997353;28;20441;-81
2023/12/16 00:59:55;;;;;;;25.00;7.90;;;;;;;5.72;100.00;102790.13;4996331;28;20440;-81
2023/12/16 01:02:24;;;;;;;22.90;7.38;;;;;;;5.75;100.00;102782.44;4986563;28;20436;-81
2023/12/16 01:04:58;;;;;;;21.73;7.70;;;;;;;5.68;100.00;102784.28;5001815;28;21171;-80
2023/12/16 01:07:31;;;;;;;31.20;8.25;;;;;;;5.72;100.00;102774.75;4986844;28;20437;-81
2023/12/16 01:09:59;;;;;;;26.55;7.95;;;;;;;5.71;100.00;102778.47;4984178;28;20431;-81
2023/12/16 01:12:27;;;;;;;29.30;8.07;;;;;;;5.69;100.00;102766.19;4997981;28;20428;-81
2023/12/16 01:15:01;;;;;;;32.38;8.25;;;;;;;5.67;100.00;102781.75;4987600;28;20468;-81
2023/12/16 01:17:30;;;;;;;26.87;8.30;;;;;;;5.66;100.00;102786.31;4997975;28;20434;-80
2023/12/16 01:19:59;;;;;;;25.13;7.82;;;;;;;5.63;100.00;102789.41;5000878;28;20423;-80
2023/12/16 01:22:32;;;;;;;27.23;7.47;;;;;;;5.56;100.00;102783.13;4997150;28;21016;-81
2023/12/16 01:25:06;;;;;;;28.90;8.13;;;;;;;5.62;100.00;102788.59;4996096;28;20430;-80
2023/12/16 01:27:35;;;;;;;24.30;7.80;;;;;;;5.52;100.00;102792.63;4997610;28;20420;-80
2023/12/16 01:30:04;;;;;;;26.40;8.00;;;;;;;5.65;100.00;102805.41;4985093;28;20433;-80
2023/12/16 01:32:38;;;;;;;23.10;7.45;;;;;;;5.54;100.00;102798.69;4979227;28;20442;-80
2023/12/16 01:35:11;;;;;;;20.83;7.17;;;;;;;5.54;100.00;102806.81;4981170;28;20432;-78
2023/12/16 01:37:45;;;;;;;28.58;7.47;;;;;;;5.49;100.00;102801.13;4979531;28;20451;-80
2023/12/16 01:40:13;;;;;;;24.77;7.30;;;;;;;5.53;100.00;102795.16;4998177;28;20907;-78
2023/12/16 01:42:46;;;;;;;22.15;6.95;;;;;;;5.63;100.00;102800.22;4980165;28;20434;-80
2023/12/16 01:45:16;;;;;;;27.73;7.03;;;;;;;5.45;100.00;102782.63;4985844;28;20436;-78
2023/12/16 01:47:46;;;;;;;21.57;6.60;;;;;;;5.37;100.00;102798.09;4997299;28;20429;-78
2023/12/16 01:50:15;;;;;;;21.17;6.85;;;;;;;5.33;100.00;102802.22;4980712;28;20428;-79
2023/12/16 01:52:49;;;;;;;22.27;7.00;;;;;;;5.40;100.00;102808.50;4998263;28;20430;-79
2023/12/16 01:55:22;;;;;;;21.45;6.35;;;;;;;5.42;100.00;102793.78;4986080;28;20437;-79
2023/12/16 01:57:56;;;;;;;21.50;6.38;;;;;;;5.55;100.00;102792.25;4977314;28;20781;-80
2023/12/16 02:00:29;;;;;;;21.92;6.00;;;;;;;5.51;100.00;102780.16;4994290;28;20437;-80
2023/12/16 02:03:04;;;;;;;18.50;5.65;;;;;;;5.47;100.00;102779.72;4998631;28;20428;-78
2023/12/16 02:05:38;;;;;;;20.73;6.20;;;;;;;5.43;100.00;102773.88;4983268;28;20529;-80
2023/12/16 02:08:06;;;;;;;20.83;5.57;;;;;;;5.43;100.00;102781.16;4988665;28;20424;-80
2023/12/16 02:10:39;;;;;;;20.75;5.53;;;;;;;5.36;100.00;102764.88;4978949;28;20429;-80
2023/12/16 02:13:12;;;;;;;18.00;5.13;;;;;;;5.25;100.00;102762.69;4980822;28;20432;-80
2023/12/16 02:15:46;;;;;;;20.90;5.50;;;;;;;5.31;100.00;102770.00;4997287;28;20429;-80
2023/12/16 02:18:21;;;;;;;18.48;5.72;;;;;;;5.38;100.00;102761.97;4982441;28;20444;-80
2023/12/16 02:20:54;;;;;;;23.25;5.20;;;;;;;5.47;100.00;102757.28;4999437;28;20421;-79
2023/12/16 02:23:23;;;;;;;19.83;5.15;;;;;;;5.43;100.00;102775.75;5001892;28;20440;-80
2023/12/16 02:25:51;;;;;;;19.83;4.75;;;;;;;5.43;100.00;102751.44;5002124;28;20870;-80
2023/12/16 02:28:20;;;;;;;20.98;4.75;;;;;;;5.32;100.00;102754.63;5001556;28;20416;-79
2023/12/16 02:30:53;;;;;;;23.48;5.15;;;;;;;5.22;100.00;102755.81;5001178;28;20421;-80
2023/12/16 02:33:21;;;;;;;24.33;4.93;;;;;;;5.27;100.00;102750.69;4981069;28;20866;-80
2023/12/16 02:35:49;;;;;;;23.80;4.80;;;;;;;5.35;100.00;102752.41;5000608;28;20478;-80
2023/12/16 02:38:23;;;;;;;19.33;4.35;;;;;;;5.29;100.00;102758.59;5001367;28;20494;-78
2023/12/16 02:40:52;;;;;;;19.98;4.60;;;;;;;5.13;100.00;102762.34;5002259;28;20441;-78
2023/12/16 02:43:21;;;;;;;17.70;4.95;;;;;;;5.07;100.00;102766.66;5003214;28;20424;-80
2023/12/16 02:45:49;;;;;;;17.55;4.45;;;;;;;5.08;100.00;102767.50;4998314;28;20445;-80
2023/12/16 02:48:17;;;;;;;20.90;4.97;;;;;;;5.01;100.00;102763.88;5002535;28;20406;-80
2023/12/16 02:50:45;;;;;;;18.90;4.57;;;;;;;4.98;100.00;102769.69;4982317;28;20821;-78
2023/12/16 02:53:19;;;;;;;17.65;4.05;;;;;;;4.79;100.00;102774.63;4989137;28;20975;-78
2023/12/16 02:55:53;;;;;;;17.15;4.28;;;;;;;4.74;100.00;102775.22;5002975;28;20422;-80
2023/12/16 02:58:26;;;;;;;21.35;4.18;;;;;;;4.74;100.00;102782.47;4990272;28;20423;-78
2023/12/16 03:00:55;;;;;;;19.17;4.45;;;;;;;4.65;100.00;102770.94;5000726;28;20435;-79
2023/12/16 03:03:23;;;;;;;18.30;4.70;;;;;;;4.61;100.00;102769.66;5001910;28;20453;-80
2023/12/16 03:05:56;;;;;;;17.98;4.00;;;;;;;4.58;100.00;102765.50;4990448;28;20433;-79
2023/12/16 03:08:24;;;;;;;21.83;4.15;;;;;;;4.64;100.00;102758.50;5003143;28;20775;-80
2023/12/16 03:10:54;;;;;;;23.35;4.57;;;;;;;4.71;100.00;102761.25;4997372;28;20441;-80
2023/12/16 03:13:27;;;;;;;22.80;4.22;;;;;;;4.69;100.00;102763.31;4981904;28;20430;-81
2023/12/16 03:15:56;;;;;;;14.43;3.95;;;;;;;4.67;100.00;102760.81;4988863;28;20426;-80
2023/12/16 03:18:25;;;;;;;21.85;4.30;;;;;;;4.58;100.00;102761.94;4988669;28;20429;-80
2023/12/16 03:20:53;;;;;;;19.43;4.63;;;;;;;4.64;100.00;102766.59;4999926;28;20453;-81
2023/12/16 03:23:21;;;;;;;21.55;4.35;;;;;;;4.72;100.00;102755.69;4986706;28;20437;-81
2023/12/16 03:25:49;;;;;;;21.27;4.32;;;;;;;4.71;100.00;102763.97;4984973;28;20882;-80
2023/12/16 03:28:24;;;;;;;19.35;4.05;;;;;;;4.74;100.00;102759.03;4990830;28;21057;-81
2023/12/16 03:30:57;;;;;;;17.95;4.28;;;;;;;4.67;100.00;102760.81;4983764;28;20432;-80
2023/12/16 03:33:30;;;;;;;17.95;4.22;;;;;;;4.66;100.00;102769.94;5000639;28;20424;-80
2023/12/16 03:36:04;;;;;;;19.92;4.65;;;;;;;4.66;100.00;102772.63;4988278;28;20438;-80
2023/12/16 03:38:32;;;;;;;17.80;4.17;;;;;;;4.86;100.00;102788.22;5001524;28;20928;-80
2023/12/16 03:41:06;;;;;;;14.82;3.85;;;;;;;4.81;100.00;102786.09;5000433;28;20453;-80
2023/12/16 03:43:41;;;;;;;16.45;4.05;;;;;;;4.83;100.00;102796.69;4998685;28;20448;-80
2023/12/16 03:46:09;;;;;;;19.45;4.57;;;;;;;4.88;100.00;102787.00;5001696;28;20428;-78
2023/12/16 03:48:42;;;;;;;22.83;5.15;;;;;;;4.84;100.00;102785.69;4978206;28;20434;-80
2023/12/16 03:51:15;;;;;;;13.40;4.70;;;;;;;4.96;100.00;102794.16;4999389;28;20446;-78
2023/12/16 03:53:49;;;;;;;14.55;4.15;;;;;;;4.95;100.00;102797.88;4978056;28;20437;-78
2023/12/16 03:56:17;;;;;;;16.52;4.32;;;;;;;4.84;100.00;102793.78;4988071;28;20422;-78
2023/12/16 03:58:51;;;;;;;19.08;4.20;;;;;;;4.89;100.00;102794.06;4979266;28;20431;-78
2023/12/16 04:01:25;;;;;;;18.08;4.38;;;;;;;4.85;100.00;102802.75;4999465;28;21240;-79
2023/12/16 04:03:53;;;;;;;16.80;4.30;;;;;;;4.79;100.00;102812.41;5003128;28;20425;-78
2023/12/16 04:06:21;;;;;;;18.15;4.28;;;;;;;4.87;100.00;102819.56;4999298;28;20434;-79
2023/12/16 04:08:49;;;;;;;19.23;4.38;;;;;;;4.92;100.00;102817.97;4988159;28;20793;-78
2023/12/16 04:11:22;;;;;;;19.87;4.70;;;;;;;4.92;100.00;102819.84;5001620;28;20499;-80
2023/12/16 04:13:52;;;;;;;18.17;4.35;;;;;;;4.94;100.00;102823.19;5000671;28;20852;-78
2023/12/16 04:16:20;;;;;;;17.35;4.43;;;;;;;4.90;100.00;102825.44;5000166;28;20870;-79
2023/12/16 04:18:48;;;;;;;17.98;4.50;;;;;;;4.89;100.00;102821.06;5002131;28;20412;-78
2023/12/16 04:21:17;;;;;;;17.58;4.47;;;;;;;4.99;100.00;102815.34;4996994;28;20427;-79
2023/12/16 04:23:45;;;;;;;14.10;3.95;;;;;;;4.93;100.00;102822.34;4998128;28;20887;-78
2023/12/16 04:26:18;;;;;;;22.73;4.60;;;;;;;4.90;100.00;102814.63;5003364;28;20902;-80
2023/12/16 04:28:53;;;;;;;17.15;3.83;;;;;;;4.89;100.00;102814.84;5001681;28;20416;-81
2023/12/16 04:31:26;;;;;;;15.55;3.40;;;;;;;5.00;100.00;102810.78;4989052;28;20459;-79
2023/12/16 04:33:59;;;;;;;21.90;4.10;;;;;;;4.94;100.00;102810.53;4998517;28;20432;-78
2023/12/16 04:36:27;;;;;;;15.95;3.78;;;;;;;4.88;100.00;102813.97;4991204;28;20425;-78
2023/12/16 04:39:00;;;;;;;11.45;3.53;;;;;;;5.09;100.00;102820.44;4999517;28;20523;-78
2023/12/16 04:41:34;;;;;;;15.68;3.50;;;;;;;5.09;100.00;102820.44;5000419;28;20426;-80
2023/12/16 04:44:08;;;;;;;17.90;3.67;;;;;;;5.01;100.00;102812.47;4980812;28;20440;-81
2023/12/16 04:46:37;;;;;;;13.88;3.25;;;;;;;5.16;100.00;102817.84;5000847;28;20417;-78
2023/12/16 04:49:05;;;;;;;15.10;3.73;;;;;;;5.15;100.00;102835.03;4999551;28;20412;-78
2023/12/16 04:51:33;;;;;;;14.00;3.20;;;;;;;5.10;100.00;102827.53;4980801;28;21034;-79
2023/12/16 04:54:06;;;;;;;15.68;3.63;;;;;;;5.11;100.00;102837.31;4998157;28;20422;-79
2023/12/16 04:56:39;;;;;;;13.00;3.08;;;;;;;5.01;100.00;102834.88;4987170;28;20441;-78
2023/12/16 04:59:14;;;;;;;15.18;3.33;;;;;;;5.08;100.00;102841.22;4979531;28;20453;-78
2023/12/16 05:01:48;;;;;;;15.15;3.67;;;;;;;5.17;100.00;102841.09;4995551;28;20434;-78
2023/12/16 05:04:22;;;;;;;15.88;3.67;;;;;;;5.10;100.00;102841.84;4987806;28;20447;-78
2023/12/16 05:06:55;;;;;;;18.58;3.53;;;;;;;5.13;100.00;102835.25;5000373;28;20433;-81
2023/12/16 05:09:28;;;;;;;13.00;2.80;;;;;;;5.19;100.00;102833.63;4999837;28;20464;-78
2023/12/16 05:11:57;;;;;;;13.70;3.38;;;;;;;5.04;100.00;102839.06;5002655;28;20449;-80
2023/12/16 05:14:32;;;;;;;23.23;3.60;;;;;;;4.89;100.00;102829.16;5003378;28;20425;-78
2023/12/16 05:17:05;;;;;;;14.50;3.45;;;;;;;4.95;100.00;102835.66;4986431;28;21056;-80
2023/12/16 05:19:38;;;;;;;14.07;3.58;;;;;;;4.93;100.00;102843.94;5000443;28;20422;-80
2023/12/16 05:22:07;;;;;;;14.98;3.45;;;;;;;4.82;100.00;102839.03;4994351;28;20434;-79
2023/12/16 05:24:40;;;;;;;15.90;3.88;;;;;;;4.96;100.00;102836.47;4997013;28;20437;-80
2023/12/16 05:27:08;;;;;;;16.15;3.20;;;;;;;4.90;100.00;102838.94;5002941;28;20430;-78
2023/12/16 05:29:37;;;;;;;14.98;3.38;;;;;;;4.90;100.00;102843.47;4995662;28;20425;-81
2023/12/16 05:32:10;;;;;;;14.75;3.55;;;;;;;5.02;100.00;102836.56;4989321;28;21006;-80
2023/12/16 05:34:39;;;;;;;13.40;3.27;;;;;;;5.08;100.00;102845.75;5000205;28;20499;-80
2023/12/16 05:37:12;;;;;;;13.38;3.25;;;;;;;5.03;100.00;102840.94;4985179;28;20438;-80
2023/12/16 05:39:46;;;;;;;15.82;3.65;;;;;;;4.91;100.00;102840.56;4998085;28;20454;-80
2023/12/16 05:42:19;;;;;;;14.77;3.38;;;;;;;4.95;100.00;102835.66;4998940;28;20898;-80
2023/12/16 05:44:49;;;;;;;13.05;3.05;;;;;;;4.95;100.00;102824.84;4988187;28;20429;-80
2023/12/16 05:47:17;;;;;;;17.42;3.65;;;;;;;4.93;100.00;102827.75;4983869;28;20434;-81
2023/12/16 05:49:51;;;;;;;14.15;3.20;;;;;;;4.97;100.00;102821.97;4980968;28;20432;-80
2023/12/16 05:52:19;;;;;;;15.47;3.70;;;;;;;4.98;100.00;102821.78;4996718;28;20421;-81
2023/12/16 05:54:47;;;;;;;13.85;3.63;;;;;;;4.86;100.00;102815.19;4996043;28;20786;-80
2023/12/16 05:57:20;;;;;;;13.32;3.10;;;;;;;4.94;100.00;102823.19;5004324;28;20424;-79
2023/12/16 05:59:55;;;;;;;19.55;3.80;;;;;;;4.89;100.00;102809.44;5004565;28;20796;-81
2023/12/16 06:02:23;;;;;;;16.50;3.63;;;;;;;5.03;100.00;102803.16;4999062;28;20424;-80
2023/12/16 06:04:56;;;;;;;15.27;3.45;;;;;;;5.03;100.00;102789.66;4986867;28;20441;-80
2023/12/16 06:07:24;;;;;;;14.98;3.17;;;;;;;4.89;100.00;102787.84;4985219;28;20440;-80
2023/12/16 06:09:58;;;;;;;13.90;3.28;;;;;;;4.86;100.00;102794.47;4993143;28;20430;-80
2023/12/16 06:12:31;;;;;;;13.82;3.15;;;;;;;4.85;100.00;102784.69;4985381;28;20932;-80
2023/12/16 06:15:07;;;;;;;13.88;3.75;;;;;;;4.78;100.00;102786.47;5007626;28;20430;-80
2023/12/16 06:17:40;;;;;;;14.23;3.42;;;;;;;4.83;100.00;102775.09;4992710;28;20436;-80
2023/12/16 06:20:13;;;;;;;10.00;3.08;;;;;;;4.79;100.00;102781.91;5006030;28;20426;-79
2023/12/16 06:22:47;;;;;;;13.32;3.00;;;;;;;4.82;100.00;102786.91;5007227;28;20450;-81
2023/12/16 06:25:20;;;;;;;15.68;3.28;;;;;;;4.86;100.00;102783.66;4996086;28;20435;-83
2023/12/16 06:27:48;;;;;;;14.73;3.50;;;;;;;4.86;100.00;102777.41;4987720;28;20440;-81
2023/12/16 06:30:23;;;;;;;12.55;3.75;;;;;;;4.95;100.00;102787.06;5007442;28;20449;-81
2023/12/16 06:32:54;;;;;;;16.02;3.38;;;;;;;4.91;100.00;102781.22;5004058;28;20429;-81
2023/12/16 06:35:27;;;;;;;14.38;3.50;;;;;;;5.05;100.00;102787.59;5004127;28;20436;-80
2023/12/16 06:38:01;;;;;;;17.25;3.50;;;;;;;5.06;100.00;102788.44;5009024;28;20888;-81
2023/12/16 06:40:34;;;;;;;13.10;2.90;;;;;;;5.00;100.00;102783.81;5006877;28;21230;-80
2023/12/16 06:43:07;;;;;;;14.95;4.05;;;;;;;4.98;100.00;102775.91;4991508;28;20440;-79
2023/12/16 06:45:42;;;;;;;15.45;3.28;;;;;;;5.01;100.00;102778.22;5009866;28;20420;-79
2023/12/16 06:48:15;;;;;;;10.90;2.92;;;;;;;5.02;100.00;102777.19;5010591;28;20436;-80
2023/12/16 06:50:43;;;;;;;11.13;3.03;;;;;;;5.00;100.00;102781.97;4978737;28;20896;-79
2023/12/16 06:53:17;;;;;;;14.77;3.22;;;;;;;4.96;100.00;102785.22;5004522;28;20427;-80
2023/12/16 06:55:46;;;;;;;13.75;3.03;;;;;;;5.10;100.00;102787.88;5006157;28;21220;-80
2023/12/16 06:58:14;;;;;;;14.30;2.97;;;;;;;5.19;100.00;102794.00;5006673;28;20441;-79
2023/12/16 07:00:48;;;;;;;11.63;3.33;;;;;;;5.10;100.00;102792.44;4982518;28;20451;-80
2023/12/16 07:03:17;;;;;;;12.07;2.97;;;;;;;5.23;100.00;102786.34;5005351;28;20774;-79
2023/12/16 07:05:46;;;;;;;13.65;3.03;;;;;;;5.14;100.00;102790.19;4985906;28;20453;-81
2023/12/16 07:08:19;;;;;;;15.67;3.50;;;;;;;5.11;100.00;102784.16;5004924;28;20441;-80
2023/12/16 07:10:47;;;;;;;11.02;2.60;;;;;;;5.14;100.00;102788.34;4992080;28;20441;-80
2023/12/16 07:13:20;;;;;;;14.80;3.17;;;;;;;4.96;100.00;102787.91;4993905;28;20434;-80
2023/12/16 07:15:55;;;;;;;13.23;3.15;;;;;;;4.92;100.00;102792.88;4992483;28;20428;-80
2023/12/16 07:18:28;;;;;;;13.50;3.17;;;;;;;4.92;100.00;102790.16;4990949;28;20442;-80
2023/12/16 07:20:56;;;;;;;10.77;2.80;;;;;;;4.95;100.00;102795.16;5000585;28;20443;-79
2023/12/16 07:23:33;;;;;;;12.23;3.00;;;;;;;4.98;100.00;102794.78;5003998;28;20461;-79
2023/12/16 07:26:06;;;;;;;16.15;2.90;;;;;;;4.99;100.00;102790.25;5003062;28;20425;-79
2023/12/16 07:28:39;;;;;;;15.18;3.13;;;;;;;4.91;100.00;102785.78;4993674;28;20431;-79
2023/12/16 07:31:11;;;;;;;19.02;3.75;;;;;;;4.70;100.00;102776.63;5004251;28;20969;-79
2023/12/16 07:33:39;;;;;;;13.90;3.63;;;;;;;4.64;100.00;102781.94;5002030;28;20425;-78
2023/12/16 07:36:12;;;;;;;15.05;2.80;;;;;;;4.70;100.00;102786.59;5001627;28;20429;-77
2023/12/16 07:38:45;;;;;;;14.38;3.40;;;;;;;4.72;100.00;102779.97;4998687;28;20439;-76
2023/12/16 07:41:18;;;;;;;13.55;3.30;;;;;;;4.83;100.00;102775.94;4988133;28;20434;-77
2023/12/16 07:43:51;;;;;;;13.00;2.80;;;;;;;4.82;100.00;102770.72;5003665;28;20443;-78
2023/12/16 07:46:26;;;;;;;14.57;3.40;;;;;;;4.86;100.00;102777.41;4989979;28;20822;-77
2023/12/16 07:48:59;;;;;;;12.90;3.03;;;;;;;4.77;100.00;102785.63;5002185;28;20500;-77
2023/12/16 07:51:28;;;;;;;13.10;2.70;;;;;;;4.77;100.00;102791.00;4998946;28;20436;-78
2023/12/16 07:53:56;;;;;;;14.90;3.15;;;;;;;4.76;100.00;102802.00;4999070;28;20432;-77
2023/12/16 07:56:29;;;;;;;15.00;3.37;;;;;;;4.82;100.00;102803.97;4998104;28;20432;-77
2023/12/16 07:59:02;;;;;;;14.27;3.03;;;;;;;5.06;100.00;102807.34;4988703;28;20791;-76
2023/12/16 08:01:37;;;;;;;17.93;2.97;;;;;;;5.03;100.00;102813.13;4996087;28;20423;-77
2023/12/16 08:04:10;;;;;;;13.25;3.17;;;;;;;5.13;100.00;102816.34;4988901;28;20438;-77
2023/12/16 08:06:43;;;;;;;14.35;3.53;;;;;;;5.20;100.00;102803.75;5001584;28;20905;-77
2023/12/16 08:09:16;;;;;;;14.80;3.13;;;;;;;5.24;100.00;102798.81;4987184;28;20787;-77
2023/12/16 08:11:50;;;;;;;18.00;2.75;;;;;;;5.35;100.00;102803.69;5003727;28;20420;-78
2023/12/16 08:14:23;;;;;;;13.80;3.30;;;;;;;5.39;100.00;102801.47;5001288;28;20433;-78
2023/12/16 08:16:57;;;;;;;12.35;3.00;;;;;;;5.33;100.00;102800.38;4999955;28;20439;-78
2023/12/16 08:19:25;;;;;;;14.15;3.03;;;;;;;5.29;100.00;102799.09;4999237;28;20447;-77
2023/12/16 08:22:00;;;;;;;14.00;2.88;;;;;;;5.28;100.00;102797.41;5006207;28;20437;-76
2023/12/16 08:24:29;;;;;;;15.52;3.47;;;;;;;5.38;100.00;102794.38;4982061;28;20430;-77
2023/12/16 08:26:57;;;;;;;10.90;2.65;;;;;;;5.41;100.00;102780.50;5000847;28;20425;-77
2023/12/16 08:29:25;;;;;;;10.32;2.92;;;;;;;5.54;100.00;102788.72;4994662;28;20438;-77
2023/12/16 08:32:00;;;;;;;11.15;2.90;;;;;;;5.39;100.00;102785.25;5000762;28;20785;-78
2023/12/16 08:34:33;;;;;;;12.85;3.15;;;;;;;5.44;100.00;102783.66;4987456;28;20446;-77
2023/12/16 08:37:02;;;;;;;14.88;3.40;;;;;;;5.52;100.00;102771.03;5000984;28;20419;-78
2023/12/16 08:39:35;;;;;;;15.55;3.42;;;;;;;5.51;100.00;102772.06;4990332;28;20437;-77
2023/12/16 08:42:04;;;;;;;15.75;3.20;;;;;;;5.58;100.00;102773.78;5000733;28;20438;-78
2023/12/16 08:44:37;;;;;;;14.80;3.15;;;;;;;5.60;100.00;102765.50;4986708;28;20457;-77
2023/12/16 08:47:12;;;;;;;13.37;3.10;;;;;;;5.68;100.00;102768.06;5001993;28;20434;-78
2023/12/16 08:49:44;;;;;;;13.68;2.90;;;;;;;5.84;100.00;102761.53;5004408;28;20435;-79
2023/12/16 08:52:17;;;;;;;12.57;3.00;;;;;;;5.92;100.00;102758.69;5000488;28;20434;-78
2023/12/16 08:54:45;;;;;;;15.10;2.83;;;;;;;6.04;100.00;102760.88;4995819;28;20411;-78
2023/12/16 08:57:13;;;;;;;18.23;3.33;;;;;;;6.03;100.00;102756.50;4999706;28;20436;-78
2023/12/16 08:59:47;;;;;;;14.23;2.80;;;;;;;6.00;100.00;102762.31;4998932;28;20428;-77
2023/12/16 09:02:22;;;;;;;15.43;2.95;;;;;;;5.99;100.00;102774.13;4999864;28;20424;-77
2023/12/16 09:04:55;;;;;;;16.00;3.17;;;;;;;5.98;100.00;102778.72;5000438;28;20419;-79
2023/12/16 09:07:28;;;;;;;13.63;2.72;;;;;;;6.11;100.00;102786.06;4998780;28;20457;-79
2023/12/16 09:09:56;;;;;;;15.63;3.08;;;;;;;6.20;100.00;102779.47;4978656;28;20436;-76
2023/12/16 09:12:29;;;;;;;13.00;2.90;;;;;;;6.09;100.00;102788.13;4980216;28;20438;-80
2023/12/16 09:15:03;;;;;;;12.65;2.90;;;;;;;6.09;100.00;102774.59;4999731;28;20424;-78
2023/12/16 09:17:37;;;;;;;15.23;3.40;;;;;;;6.08;100.00;102762.97;5001717;28;20770;-77
2023/12/16 09:20:07;;;;;;;15.45;3.25;;;;;;;6.16;100.00;102758.44;4999689;28;20497;-78
2023/12/16 09:22:35;;;;;;;14.67;3.57;;;;;;;6.10;100.00;102762.78;4992975;28;20567;-78
2023/12/16 09:25:04;;;;;;;19.63;3.30;;;;;;;6.10;100.00;102769.03;4991616;28;20430;-78
2023/12/16 09:27:37;;;;;;;17.35;3.10;;;;;;;6.08;100.00;102770.25;5003481;28;20424;-78
2023/12/16 09:30:12;;;;;;;14.20;3.07;;;;;;;6.02;100.00;102777.28;4993809;28;20438;-80
2023/12/16 09:32:46;;;;;;;15.00;3.25;;;;;;;6.12;100.00;102766.94;4988102;28;20433;-78
2023/12/16 09:35:19;;;;;;;14.45;3.22;;;;;;;6.11;100.00;102772.56;5004163;28;20924;-78
2023/12/16 09:37:53;;;;;;;16.10;3.08;;;;;;;6.06;100.00;102765.06;4984990;28;20429;-79
2023/12/16 09:40:26;;;;;;;17.27;3.53;;;;;;;6.05;100.00;102765.22;4982923;28;20443;-78
2023/12/16 09:43:00;;;;;;;17.45;3.40;;;;;;;6.06;100.00;102770.47;4988260;28;20443;-78
2023/12/16 09:45:28;;;;;;;17.20;3.60;;;;;;;6.04;100.00;102777.09;4998922;28;20441;-79
2023/12/16 09:47:58;;;;;;;14.68;3.70;;;;;;;6.04;100.00;102768.97;5000036;28;20422;-79
2023/12/16 09:50:28;;;;;;;19.27;3.85;;;;;;;6.08;100.00;102772.97;5000292;28;20426;-79
2023/12/16 09:53:02;;;;;;;14.15;4.10;;;;;;;6.10;100.00;102784.41;4998644;28;20445;-78
2023/12/16 09:55:35;;;;;;;17.60;4.20;;;;;;;6.01;100.00;102775.63;4987723;28;20433;-80
2023/12/16 09:58:11;;;;;;;14.88;4.05;;;;;;;6.00;100.00;102786.63;4987130;28;20428;-79
2023/12/16 10:00:47;;;;;;;16.88;4.32;;;;;;;6.08;100.00;102773.78;4990241;28;20463;-79
2023/12/16 10:03:17;;;;;;;17.73;5.03;;;;;;;6.02;100.00;102788.09;4996218;28;20443;-79
2023/12/16 10:05:51;;;;;;;16.02;4.43;;;;;;;6.12;100.00;102783.16;4997027;28;20434;-78
2023/12/16 10:08:25;;;;;;;18.92;4.57;;;;;;;6.07;100.00;102782.91;4989005;28;20805;-79
2023/12/16 10:10:59;;;;;;;15.77;4.72;;;;;;;6.02;100.00;102782.69;4979826;28;20425;-78
2023/12/16 10:13:34;;;;;;;17.63;4.80;;;;;;;6.04;100.00;102782.50;5002131;28;20425;-79
2023/12/16 10:16:16;;;;;;;15.93;4.95;;;;;;;6.12;100.00;102771.53;4985852;28;20432;-79
2023/12/16 10:18:49;;;;;;;15.82;4.72;;;;;;;5.97;100.00;102763.50;4988113;28;20456;-80
2023/12/16 10:21:24;;;;;;;18.40;5.60;;;;;;;5.98;100.00;102754.38;5004137;28;20421;-78
2023/12/16 10:23:59;;;;;;;16.00;5.82;;;;;;;6.01;100.00;102750.44;4984245;28;20430;-78
2023/12/16 10:26:34;;;;;;;17.30;5.40;;;;;;;5.96;100.00;102757.22;4985814;28;20425;-79
2023/12/16 10:29:04;;;;;;;16.50;5.78;;;;;;;5.95;100.00;102746.63;4999807;28;20422;-80
2023/12/16 10:31:32;;;;;;;15.68;5.60;;;;;;;6.05;100.00;102743.59;5001751;28;20457;-80
2023/12/16 10:34:02;;;;;;;17.90;5.65;;;;;;;6.07;100.00;102736.97;5000955;28;20454;-79
2023/12/16 10:36:31;;;;;;;17.98;6.43;;;;;;;5.99;100.00;102733.59;5003585;28;20447;-78
2023/12/16 10:38:59;;;;;;;17.70;6.72;;;;;;;5.91;100.00;102721.03;4987479;28;20429;-78
2023/12/16 10:41:33;;;;;;;18.65;6.65;;;;;;;5.89;100.00;102732.03;5003912;28;20436;-78
2023/12/16 10:44:06;;;;;;;17.27;7.10;;;;;;;5.91;100.00;102713.78;4947480;28;20439;-81
2023/12/16 10:46:35;;;;;;;18.92;7.20;;;;;;;5.93;100.00;102709.00;4988105;28;20434;-82
2023/12/16 10:49:13;;;;;;;15.90;6.80;;;;;;;5.91;100.00;102708.38;4974387;28;20421;-81
2023/12/16 10:51:44;;;;;;;16.48;7.28;;;;;;;6.01;100.00;102707.19;4987104;28;20451;-81
2023/12/16 10:54:26;;;;;;;17.63;7.25;;;;;;;6.07;100.00;102699.13;4969883;28;20436;-79
2023/12/16 10:57:13;;;;;;;18.37;7.80;;;;;;;6.04;100.00;102694.13;4990546;28;20427;-81
2023/12/16 10:59:47;;;;;;;19.70;7.80;;;;;;;5.99;100.00;102688.47;4968638;28;20448;-80
2023/12/16 11:02:24;;;;;;;20.45;7.63;;;;;;;6.01;100.00;102685.56;4988982;28;21710;-79
2023/12/16 11:05:01;;;;;;;21.00;7.82;;;;;;;5.98;100.00;102681.41;4989425;28;20432;-78
2023/12/16 11:07:39;;;;;;;23.58;8.05;;;;;;;6.02;100.00;102685.38;4976011;28;20436;-81
2023/12/16 11:10:12;;;;;;;18.90;7.35;;;;;;;5.97;100.00;102677.00;4994384;28;20433;-82
2023/12/16 11:12:46;;;;;;;23.98;8.73;;;;;;;5.93;100.00;102676.56;4991276;28;20453;-79
2023/12/16 11:15:20;;;;;;;20.08;8.35;;;;;;;6.01;100.00;102666.66;4990432;28;20436;-80
2023/12/16 11:17:58;;;;;;;25.80;8.52;;;;;;;5.99;100.00;102658.75;4971880;28;20437;-81
2023/12/16 11:20:37;;;;;;;23.27;8.70;;;;;;;5.92;100.00;102664.09;4996268;28;20427;-80
2023/12/16 11:23:06;;;;;;;24.08;8.95;;;;;;;6.00;100.00;102651.47;4977017;28;20446;-81
2023/12/16 11:25:39;;;;;;;19.23;8.60;;;;;;;6.13;100.00;102643.41;4976757;28;20449;-81
2023/12/16 11:28:07;;;;;;;21.65;8.70;;;;;;;6.05;100.00;102646.28;4978457;28;20425;-81
2023/12/16 11:30:36;;;;;;;26.35;9.43;;;;;;;6.05;100.00;102643.59;4991149;28;21275;-79
2023/12/16 11:33:09;;;;;;;19.13;8.57;;;;;;;6.14;100.00;102645.09;4976663;28;20506;-80
2023/12/16 11:35:52;;;;;;;26.17;9.25;;;;;;;6.01;100.00;102643.16;4976683;28;20430;-78
2023/12/16 11:38:42;;;;;;;23.98;9.02;;;;;;;6.02;100.00;102646.69;4977877;28;20446;-80